createdAt,value
2023-02-01T00:01:21.281Z,99.90
2023-02-01T00:03:48.128Z,99.90
2023-02-01T00:06:15.071Z,99.90
2023-02-01T00:08:41.924Z,99.90
2023-02-01T00:11:12.126Z,99.90
2023-02-01T00:13:41.856Z,99.90
2023-02-01T00:16:13.446Z,99.90
2023-02-01T00:18:40.417Z,99.90
2023-02-01T00:21:07.345Z,99.90
2023-02-01T00:23:36.012Z,99.90
2023-02-01T00:26:06.409Z,99.90
2023-02-01T00:28:33.796Z,99.90
2023-02-01T00:31:02.318Z,99.90
2023-02-01T00:33:30.386Z,99.90
2023-02-01T00:35:59.470Z,99.90
2023-02-01T00:38:27.363Z,99.90
2023-02-01T00:40:54.191Z,99.90
2023-02-01T00:43:21.629Z,99.90
2023-02-01T00:45:48.430Z,99.90
2023-02-01T00:48:15.220Z,99.90
2023-02-01T00:50:45.104Z,99.90
2023-02-01T00:53:12.165Z,99.90
2023-02-01T00:55:39.155Z,99.90
2023-02-01T00:58:06.997Z,99.90
2023-02-01T01:00:34.450Z,99.90
2023-02-01T01:03:01.292Z,99.90
2023-02-01T01:05:30.690Z,99.90
2023-02-01T01:07:57.493Z,99.90
2023-02-01T01:10:24.443Z,99.90
2023-02-01T01:12:52.379Z,99.90
2023-02-01T01:15:19.220Z,99.90
2023-02-01T01:17:45.995Z,99.90
2023-02-01T01:20:13.282Z,99.90
2023-02-01T01:22:40.156Z,99.90
2023-02-01T01:25:07.391Z,99.90
2023-02-01T01:27:34.202Z,99.90
2023-02-01T01:30:01.027Z,99.90
2023-02-01T01:32:27.759Z,99.90
2023-02-01T01:34:54.543Z,99.90
2023-02-01T01:37:21.340Z,99.90
2023-02-01T01:39:48.106Z,99.90
2023-02-01T01:42:14.920Z,99.90
2023-02-01T01:44:57.069Z,99.90
2023-02-01T01:47:24.686Z,99.90
2023-02-01T01:49:51.895Z,99.90
2023-02-01T01:52:19.691Z,99.90
2023-02-01T01:54:49.584Z,99.90
2023-02-01T01:57:21.822Z,99.90
2023-02-01T01:59:58.916Z,99.90
2023-02-01T02:02:25.908Z,99.90
2023-02-01T02:04:52.837Z,99.90
2023-02-01T02:07:26.090Z,99.90
2023-02-01T02:10:00.571Z,99.90
2023-02-01T02:12:28.432Z,99.90
2023-02-01T02:14:55.539Z,99.90
2023-02-01T02:17:59.154Z,99.90
2023-02-01T02:21:10.053Z,99.90
2023-02-01T02:23:54.345Z,99.90
2023-02-01T02:26:40.777Z,99.90
2023-02-01T02:29:32.027Z,99.90
2023-02-01T02:32:33.429Z,99.90
2023-02-01T02:35:07.807Z,99.90
2023-02-01T02:37:54.676Z,99.90
2023-02-01T02:40:41.561Z,99.90
2023-02-01T02:43:38.427Z,99.90
2023-02-01T02:46:44.313Z,99.90
2023-02-01T02:49:13.822Z,99.90
2023-02-01T02:52:36.231Z,99.90
2023-02-01T02:55:05.275Z,99.90
2023-02-01T02:57:58.521Z,99.90
2023-02-01T03:00:53.635Z,99.90
2023-02-01T03:03:39.094Z,99.90
2023-02-01T03:06:17.309Z,99.90
2023-02-01T03:08:46.297Z,99.90
2023-02-01T03:11:15.936Z,99.90
2023-02-01T03:13:58.949Z,99.90
2023-02-01T03:16:29.195Z,99.90
2023-02-01T03:19:03.202Z,99.90
2023-02-01T03:22:01.787Z,99.90
2023-02-01T03:24:42.375Z,99.90
2023-02-01T03:27:24.392Z,99.90
2023-02-01T03:30:02.023Z,99.90
2023-02-01T03:32:29.344Z,99.90
2023-02-01T03:34:56.856Z,99.90
2023-02-01T03:37:28.846Z,99.90
2023-02-01T03:40:04.190Z,99.90
2023-02-01T03:42:45.612Z,99.90
2023-02-01T03:45:23.422Z,99.90
2023-02-01T03:47:54.383Z,99.90
2023-02-01T03:50:24.965Z,99.90
2023-02-01T03:53:07.525Z,99.90
2023-02-01T03:55:35.717Z,99.90
2023-02-01T03:58:13.214Z,99.90
2023-02-01T04:00:40.455Z,99.90
2023-02-01T04:03:08.163Z,99.90
2023-02-01T04:05:35.293Z,99.90
2023-02-01T04:08:02.139Z,99.90
2023-02-01T04:10:29.007Z,99.90
2023-02-01T04:12:55.799Z,99.90
2023-02-01T04:15:22.691Z,99.90
2023-02-01T04:17:49.519Z,99.90
2023-02-01T04:20:16.578Z,99.90
2023-02-01T04:22:44.144Z,99.90
2023-02-01T04:25:11.660Z,99.90
2023-02-01T04:30:10.618Z,99.90
2023-02-01T04:32:38.348Z,99.90
2023-02-01T04:35:05.577Z,99.90
2023-02-01T04:37:32.341Z,99.90
2023-02-01T04:39:59.282Z,99.90
2023-02-01T04:42:26.540Z,99.90
2023-02-01T04:44:53.404Z,99.90
2023-02-01T04:47:20.200Z,99.90
2023-02-01T04:49:46.968Z,99.90
2023-02-01T04:52:13.812Z,99.90
2023-02-01T04:54:40.619Z,99.90
2023-02-01T04:57:07.474Z,99.90
2023-02-01T04:59:34.371Z,99.90
2023-02-01T05:02:01.263Z,99.90
2023-02-01T05:04:28.193Z,99.90
2023-02-01T05:06:54.986Z,99.90
2023-02-01T05:09:22.793Z,99.90
2023-02-01T05:12:08.308Z,99.90
2023-02-01T05:14:35.124Z,99.90
2023-02-01T05:17:01.886Z,99.90
2023-02-01T05:19:28.694Z,99.90
2023-02-01T05:21:55.594Z,99.90
2023-02-01T05:24:22.433Z,99.90
2023-02-01T05:26:50.380Z,99.90
2023-02-01T05:29:18.707Z,99.90
2023-02-01T05:31:46.604Z,99.90
2023-02-01T05:34:14.302Z,99.90
2023-02-01T05:36:41.488Z,99.90
2023-02-01T05:39:08.459Z,99.90
2023-02-01T05:41:35.338Z,99.90
2023-02-01T05:44:02.245Z,99.90
2023-02-01T05:46:29.189Z,99.90
2023-02-01T05:48:56.145Z,99.90
2023-02-01T05:51:22.983Z,99.90
2023-02-01T05:53:49.770Z,99.90
2023-02-01T05:56:16.556Z,99.90
2023-02-01T05:58:43.456Z,99.90
2023-02-01T06:01:10.276Z,99.90
2023-02-01T06:03:37.656Z,99.90
2023-02-01T06:06:05.063Z,99.90
2023-02-01T06:08:31.867Z,99.90
2023-02-01T06:11:03.719Z,99.90
2023-02-01T06:13:32.706Z,99.90
2023-02-01T06:16:01.726Z,99.90
2023-02-01T06:18:28.576Z,99.90
2023-02-01T06:21:02.869Z,99.90
2023-02-01T06:23:30.938Z,99.90
2023-02-01T06:26:03.645Z,99.90
2023-02-01T06:28:31.719Z,99.90
2023-02-01T06:30:59.048Z,99.90
2023-02-01T06:33:26.584Z,99.90
2023-02-01T06:36:00.884Z,99.90
2023-02-01T06:38:28.555Z,99.90
2023-02-01T06:40:57.071Z,99.90
2023-02-01T06:43:25.245Z,99.90
2023-02-01T06:45:52.741Z,99.90
2023-02-01T06:48:20.010Z,99.90
2023-02-01T06:50:46.862Z,99.90
2023-02-01T06:53:14.861Z,99.90
2023-02-01T06:55:41.738Z,99.90
2023-02-01T06:58:08.571Z,99.90
2023-02-01T07:00:36.117Z,99.90
2023-02-01T07:03:03.225Z,99.90
2023-02-01T07:05:30.134Z,99.90
2023-02-01T07:07:56.939Z,99.90
2023-02-01T07:10:24.069Z,99.90
2023-02-01T07:12:51.073Z,99.90
2023-02-01T07:15:18.029Z,99.90
2023-02-01T07:17:45.728Z,99.90
2023-02-01T07:20:12.631Z,99.90
2023-02-01T07:22:39.446Z,99.90
2023-02-01T07:25:06.936Z,99.90
2023-02-01T07:27:36.822Z,99.90
2023-02-01T07:30:05.671Z,99.90
2023-02-01T07:32:32.516Z,99.90
2023-02-01T07:35:00.701Z,99.90
2023-02-01T07:37:27.458Z,99.90
2023-02-01T07:39:54.293Z,99.90
2023-02-01T07:42:21.040Z,99.90
2023-02-01T07:44:47.906Z,99.90
2023-02-01T07:47:14.733Z,99.90
2023-02-01T07:49:41.598Z,99.90
2023-02-01T07:52:08.430Z,99.90
2023-02-01T07:54:36.829Z,99.90
2023-02-01T07:57:03.701Z,99.90
2023-02-01T07:59:30.479Z,99.90
2023-02-01T08:01:57.330Z,99.90
2023-02-01T08:04:24.157Z,99.90
2023-02-01T08:06:50.934Z,99.90
2023-02-01T08:09:17.782Z,99.90
2023-02-01T08:11:44.600Z,99.90
2023-02-01T08:14:11.427Z,99.90
2023-02-01T08:16:40.250Z,99.90
2023-02-01T08:19:07.894Z,99.90
2023-02-01T08:21:37.840Z,99.90
2023-02-01T08:24:06.936Z,99.90
2023-02-01T08:26:33.939Z,99.90
2023-02-01T08:29:02.669Z,99.90
2023-02-01T08:31:31.019Z,99.90
2023-02-01T08:34:00.741Z,99.90
2023-02-01T08:36:29.647Z,99.90
2023-02-01T08:38:57.003Z,99.90
2023-02-01T08:41:26.780Z,99.90
2023-02-01T08:43:55.281Z,99.90
2023-02-01T08:46:23.312Z,99.90
2023-02-01T08:48:51.015Z,99.90
2023-02-01T08:51:20.088Z,99.90
2023-02-01T08:53:47.247Z,99.90
2023-02-01T08:56:16.463Z,99.90
2023-02-01T08:58:43.609Z,99.90
2023-02-01T09:01:16.385Z,99.90
2023-02-01T09:03:43.721Z,99.90
2023-02-01T09:06:15.987Z,99.90
2023-02-01T09:08:43.666Z,99.90
2023-02-01T09:11:17.076Z,99.90
2023-02-01T09:13:44.132Z,99.90
2023-02-01T09:16:11.081Z,99.90
2023-02-01T09:18:45.953Z,99.90
2023-02-01T09:21:22.561Z,99.90
2023-02-01T09:23:51.295Z,99.90
2023-02-01T09:26:19.770Z,99.90
2023-02-01T09:28:49.743Z,99.90
2023-02-01T09:31:16.664Z,99.90
2023-02-01T09:33:43.533Z,99.90
2023-02-01T09:36:10.368Z,99.90
2023-02-01T09:38:41.742Z,99.90
2023-02-01T09:41:27.389Z,99.90
2023-02-01T09:44:09.878Z,99.90
2023-02-01T09:46:37.130Z,99.90
2023-02-01T09:49:18.479Z,99.90
2023-02-01T09:51:48.832Z,99.90
2023-02-01T09:54:19.575Z,99.90
2023-02-01T09:56:58.412Z,99.90
2023-02-01T09:59:35.997Z,99.90
2023-02-01T10:02:05.444Z,99.90
2023-02-01T10:04:34.412Z,99.90
2023-02-01T10:07:10.502Z,99.90
2023-02-01T10:09:52.335Z,99.90
2023-02-01T10:12:39.372Z,99.90
2023-02-01T10:15:25.426Z,99.90
2023-02-01T10:18:29.046Z,99.90
2023-02-01T10:21:13.292Z,99.90
2023-02-01T10:24:03.436Z,99.90
2023-02-01T10:26:41.098Z,99.90
2023-02-01T10:29:19.750Z,99.90
2023-02-01T10:31:46.920Z,99.90
2023-02-01T10:34:30.877Z,99.90
2023-02-01T10:37:30.830Z,99.90
2023-02-01T10:40:01.112Z,99.90
2023-02-01T10:42:29.753Z,99.90
2023-02-01T10:45:00.241Z,99.90
2023-02-01T10:47:27.065Z,99.90
2023-02-01T10:49:58.213Z,99.20
2023-02-01T10:52:40.243Z,87.10
2023-02-01T10:55:30.334Z,68.00
2023-02-01T10:58:14.126Z,71.80
2023-02-01T11:00:47.524Z,62.50
2023-02-01T11:03:53.528Z,75.90
2023-02-01T11:06:23.122Z,67.60
2023-02-01T11:09:02.640Z,77.10
2023-02-01T11:11:30.181Z,78.50
2023-02-01T11:14:11.692Z,94.40
2023-02-01T11:16:39.883Z,90.80
2023-02-01T11:19:07.719Z,95.70
2023-02-01T11:21:35.506Z,86.00
2023-02-01T11:24:07.752Z,91.10
2023-02-01T11:26:34.827Z,99.90
2023-02-01T11:29:10.534Z,99.90
2023-02-01T11:31:37.584Z,99.90
2023-02-01T11:34:15.549Z,99.90
2023-02-01T11:36:43.188Z,99.90
2023-02-01T11:39:15.994Z,99.90
2023-02-01T11:42:23.304Z,99.90
2023-02-01T11:45:17.494Z,99.90
2023-02-01T11:47:44.408Z,99.90
2023-02-01T11:50:26.743Z,99.90
2023-02-01T11:52:59.285Z,99.90
2023-02-01T11:55:58.731Z,99.90
2023-02-01T11:58:37.295Z,99.90
2023-02-01T12:01:10.092Z,99.90
2023-02-01T12:03:50.747Z,99.90
2023-02-01T12:06:42.870Z,99.90
2023-02-01T12:09:20.329Z,99.90
2023-02-01T12:11:53.154Z,99.90
2023-02-01T12:14:38.133Z,99.90
2023-02-01T12:17:23.280Z,99.90
2023-02-01T12:19:56.916Z,99.90
2023-02-01T12:22:29.612Z,99.90
2023-02-01T12:24:59.468Z,99.90
2023-02-01T12:27:41.380Z,99.90
2023-02-01T12:30:33.061Z,99.90
2023-02-01T12:33:36.465Z,99.90
2023-02-01T12:36:15.286Z,99.90
2023-02-01T12:38:50.946Z,99.90
2023-02-01T12:41:45.489Z,99.90
2023-02-01T12:44:36.146Z,99.90
2023-02-01T12:47:15.697Z,99.90
2023-02-01T12:49:46.920Z,99.90
2023-02-01T12:52:27.222Z,99.90
2023-02-01T12:55:17.660Z,99.90
2023-02-01T12:57:50.532Z,99.90
2023-02-01T13:00:25.551Z,99.90
2023-02-01T13:03:15.600Z,99.90
2023-02-01T13:05:58.727Z,99.90
2023-02-01T13:08:42.658Z,99.90
2023-02-01T13:11:24.507Z,99.90
2023-02-01T13:14:06.617Z,99.90
2023-02-01T13:16:41.792Z,99.90
2023-02-01T13:19:30.181Z,99.90
2023-02-01T13:22:02.923Z,99.90
2023-02-01T13:24:53.374Z,99.90
2023-02-01T13:27:20.573Z,99.90
2023-02-01T13:30:02.251Z,99.90
2023-02-01T13:33:51.190Z,99.90
2023-02-01T13:36:18.132Z,99.90
2023-02-01T13:38:51.393Z,99.90
2023-02-01T13:41:42.238Z,99.90
2023-02-01T13:44:17.361Z,99.90
2023-02-01T13:46:47.410Z,99.90
2023-02-01T13:49:27.246Z,99.90
2023-02-01T13:51:57.509Z,99.90
2023-02-01T13:54:39.875Z,99.90
2023-02-01T13:57:35.494Z,99.90
2023-02-01T14:00:37.351Z,99.90
2023-02-01T14:03:07.217Z,99.90
2023-02-01T14:05:36.849Z,99.90
2023-02-01T14:08:06.528Z,99.90
2023-02-01T14:10:56.866Z,99.90
2023-02-01T14:13:36.970Z,99.90
2023-02-01T14:16:04.016Z,99.90
2023-02-01T14:18:37.387Z,99.90
2023-02-01T14:21:22.917Z,99.90
2023-02-01T14:24:08.983Z,99.90
2023-02-01T14:26:35.818Z,99.90
2023-02-01T14:29:12.721Z,99.90
2023-02-01T14:32:05.036Z,99.90
2023-02-01T14:35:02.419Z,99.90
2023-02-01T14:37:36.144Z,99.90
2023-02-01T14:40:25.360Z,99.90
2023-02-01T14:42:53.803Z,99.90
2023-02-01T14:45:24.276Z,99.90
2023-02-01T14:47:56.546Z,99.90
2023-02-01T14:50:33.749Z,99.90
2023-02-01T14:53:09.664Z,99.90
2023-02-01T14:55:53.071Z,99.90
2023-02-01T14:58:31.871Z,99.90
2023-02-01T15:01:05.919Z,99.90
2023-02-01T15:03:50.994Z,99.90
2023-02-01T15:06:38.742Z,99.90
2023-02-01T15:09:15.604Z,99.90
2023-02-01T15:12:00.850Z,99.90
2023-02-01T15:14:29.753Z,99.90
2023-02-01T15:16:56.775Z,99.90
2023-02-01T15:19:29.094Z,99.90
2023-02-01T15:21:58.212Z,99.90
2023-02-01T15:24:30.531Z,99.90
2023-02-01T15:27:04.753Z,99.90
2023-02-01T15:29:34.220Z,99.90
2023-02-01T15:32:01.225Z,99.90
2023-02-01T15:34:48.101Z,99.90
2023-02-01T15:37:17.148Z,99.90
2023-02-01T15:40:12.702Z,99.90
2023-02-01T15:42:51.960Z,99.90
2023-02-01T15:45:20.716Z,99.90
2023-02-01T15:47:53.284Z,99.90
2023-02-01T15:50:23.297Z,99.90
2023-02-01T15:52:56.610Z,99.90
2023-02-01T15:55:43.663Z,99.90
2023-02-01T15:58:19.427Z,99.90
2023-02-01T16:00:51.146Z,99.90
2023-02-01T16:03:41.261Z,99.90
2023-02-01T16:06:23.100Z,99.90
2023-02-01T16:08:53.305Z,99.90
2023-02-01T16:11:41.133Z,99.90
2023-02-01T16:14:07.890Z,99.90
2023-02-01T16:16:34.855Z,99.90
2023-02-01T16:19:01.747Z,99.90
2023-02-01T16:21:28.506Z,99.90
2023-02-01T16:23:55.305Z,99.90
2023-02-01T16:26:22.282Z,99.90
2023-02-01T16:28:49.507Z,99.90
2023-02-01T16:31:22.523Z,99.90
2023-02-01T16:33:52.651Z,99.90
2023-02-01T16:36:20.029Z,99.90
2023-02-01T16:38:50.287Z,99.90
2023-02-01T16:41:21.023Z,99.90
2023-02-01T16:43:52.081Z,99.90
2023-02-01T16:46:23.598Z,99.90
2023-02-01T16:48:55.052Z,99.90
2023-02-01T16:51:22.771Z,99.90
2023-02-01T16:53:54.649Z,99.90
2023-02-01T16:56:24.659Z,99.90
2023-02-01T16:58:51.614Z,99.90
2023-02-01T17:01:19.856Z,99.90
2023-02-01T17:03:47.273Z,99.90
2023-02-01T17:06:21.314Z,99.90
2023-02-01T17:08:52.802Z,99.90
2023-02-01T17:11:20.177Z,99.90
2023-02-01T17:13:47.620Z,99.90
2023-02-01T17:16:29.511Z,99.90
2023-02-01T17:18:59.936Z,99.90
2023-02-01T17:21:30.021Z,99.90
2023-02-01T17:24:01.206Z,99.90
2023-02-01T17:26:28.385Z,99.90
2023-02-01T17:28:55.225Z,99.90
2023-02-01T17:31:22.226Z,99.90
2023-02-01T17:33:51.444Z,99.90
2023-02-01T17:36:18.604Z,99.90
2023-02-01T17:38:50.872Z,99.90
2023-02-01T17:41:20.966Z,99.90
2023-02-01T17:43:49.397Z,99.90
2023-02-01T17:46:27.145Z,99.90
2023-02-01T17:48:55.191Z,99.90
2023-02-01T17:51:25.070Z,99.90
2023-02-01T17:53:51.885Z,99.90
2023-02-01T17:56:21.472Z,99.90
2023-02-01T17:58:48.832Z,99.90
2023-02-01T18:01:20.481Z,99.90
2023-02-01T18:03:48.152Z,99.90
2023-02-01T18:06:21.624Z,99.90
2023-02-01T18:08:48.510Z,99.90
2023-02-01T18:11:18.164Z,98.50
2023-02-01T18:13:45.335Z,96.60
2023-02-01T18:16:23.909Z,95.60
2023-02-01T18:18:51.333Z,92.50
2023-02-01T18:21:20.293Z,81.40
2023-02-01T18:23:47.566Z,76.00
2023-02-01T18:26:18.827Z,71.90
2023-02-01T18:28:45.740Z,76.00
2023-02-01T18:31:31.037Z,76.10
2023-02-01T18:33:59.484Z,76.00
2023-02-01T18:36:27.910Z,76.00
2023-02-01T18:38:57.583Z,76.10
2023-02-01T18:41:25.334Z,73.70
2023-02-01T18:43:53.117Z,76.00
2023-02-01T18:46:21.582Z,76.00
2023-02-01T18:48:48.966Z,75.90
2023-02-01T18:51:20.496Z,75.90
2023-02-01T18:53:48.728Z,74.60
2023-02-01T18:56:18.535Z,51.40
2023-02-01T18:58:45.867Z,49.80
2023-02-01T19:01:18.567Z,38.90
2023-02-01T19:03:49.792Z,40.60
2023-02-01T19:06:21.818Z,42.50
2023-02-01T19:08:48.834Z,42.20
2023-02-01T19:11:15.694Z,54.10
2023-02-01T19:13:42.491Z,54.30
2023-02-01T19:16:11.134Z,55.60
2023-02-01T19:18:38.171Z,55.70
2023-02-01T19:21:13.086Z,50.20
2023-02-01T19:23:40.841Z,52.00
2023-02-01T19:26:16.223Z,53.00
2023-02-01T19:28:47.943Z,57.30
2023-02-01T19:31:16.317Z,60.90
2023-02-01T19:33:43.579Z,63.60
2023-02-01T19:36:11.025Z,66.40
2023-02-01T19:38:38.425Z,75.50
2023-02-01T19:41:05.501Z,75.50
2023-02-01T19:43:32.753Z,75.70
2023-02-01T19:46:00.885Z,75.50
2023-02-01T19:48:30.240Z,75.60
2023-02-01T19:50:59.057Z,83.30
2023-02-01T19:53:27.801Z,75.80
2023-02-01T19:55:56.785Z,75.70
2023-02-01T19:58:25.002Z,75.80
2023-02-01T20:00:55.314Z,75.80
2023-02-01T20:03:22.766Z,75.80
2023-02-01T20:05:54.282Z,73.20
2023-02-01T20:08:21.435Z,75.80
2023-02-01T20:10:49.149Z,63.40
2023-02-01T20:13:16.405Z,67.10
2023-02-01T20:15:43.346Z,75.20
2023-02-01T20:18:10.728Z,75.50
2023-02-01T20:20:38.145Z,76.00
2023-02-01T20:23:06.354Z,69.50
2023-02-01T20:25:34.691Z,76.00
2023-02-01T20:28:02.893Z,76.00
2023-02-01T20:30:29.806Z,73.90
2023-02-01T20:32:56.986Z,68.10
2023-02-01T20:35:24.187Z,76.00
2023-02-01T20:37:51.805Z,76.00
2023-02-01T20:40:18.905Z,75.70
2023-02-01T20:42:45.864Z,76.20
2023-02-01T20:45:12.729Z,76.30
2023-02-01T20:47:41.406Z,76.10
2023-02-01T20:50:09.091Z,76.00
2023-02-01T20:52:35.939Z,76.30
2023-02-01T20:55:03.023Z,76.20
2023-02-01T20:57:29.868Z,61.70
2023-02-01T20:59:56.762Z,56.30
2023-02-01T21:02:24.430Z,65.90
2023-02-01T21:04:51.345Z,63.70
2023-02-01T21:07:18.625Z,59.60
2023-02-01T21:09:45.524Z,48.10
2023-02-01T21:12:12.409Z,53.10
2023-02-01T21:14:39.758Z,54.60
2023-02-01T21:17:06.626Z,57.30
2023-02-01T21:19:43.077Z,53.90
2023-02-01T21:22:11.918Z,60.10
2023-02-01T21:24:40.811Z,66.00
2023-02-01T21:27:09.141Z,76.40
2023-02-01T21:29:35.980Z,76.40
2023-02-01T21:32:02.977Z,76.20
2023-02-01T21:34:29.820Z,76.30
2023-02-01T21:36:56.669Z,76.30
2023-02-01T21:39:23.817Z,76.30
2023-02-01T21:42:09.347Z,76.30
2023-02-01T21:44:36.258Z,76.30
2023-02-01T21:47:03.472Z,76.30
2023-02-01T21:49:30.386Z,76.50
2023-02-01T21:51:57.464Z,85.00
2023-02-01T21:54:24.324Z,91.20
2023-02-01T21:56:57.406Z,92.60
2023-02-01T21:59:24.417Z,94.00
2023-02-01T22:01:51.800Z,90.80
2023-02-01T22:04:18.751Z,92.50
2023-02-01T22:06:46.396Z,88.10
2023-02-01T22:09:19.167Z,87.50
2023-02-01T22:11:46.722Z,76.50
2023-02-01T22:14:14.689Z,71.80
2023-02-01T22:16:41.838Z,64.20
2023-02-01T22:19:15.155Z,68.20
2023-02-01T22:21:45.198Z,65.30
2023-02-01T22:24:17.740Z,68.90
2023-02-01T22:26:45.471Z,61.40
2023-02-01T22:29:13.143Z,62.00
2023-02-01T22:31:40.546Z,67.60
2023-02-01T22:34:09.523Z,64.30
2023-02-01T22:36:36.443Z,76.50
2023-02-01T22:39:03.710Z,75.00
2023-02-01T22:41:30.512Z,80.00
2023-02-01T22:43:57.354Z,76.80
2023-02-01T22:46:27.475Z,92.40
2023-02-01T22:48:54.407Z,96.70
2023-02-01T22:51:24.108Z,96.40
2023-02-01T22:53:57.317Z,93.70
2023-02-01T22:56:37.380Z,94.90
2023-02-01T22:59:06.802Z,94.00
2023-02-01T23:01:34.622Z,99.90
2023-02-01T23:04:04.080Z,95.00
2023-02-01T23:06:32.127Z,92.90
2023-02-01T23:09:01.470Z,94.10
2023-02-01T23:11:28.900Z,94.80
2023-02-01T23:13:56.409Z,92.70
2023-02-01T23:16:23.503Z,92.00
2023-02-01T23:18:50.626Z,92.00
2023-02-01T23:21:20.093Z,90.00
2023-02-01T23:23:49.096Z,92.70
2023-02-01T23:26:16.144Z,89.20
2023-02-01T23:28:43.529Z,87.40
2023-02-01T23:31:12.985Z,90.50
2023-02-01T23:33:40.281Z,91.70
2023-02-01T23:36:11.378Z,92.50
2023-02-01T23:38:38.307Z,93.20
2023-02-01T23:41:06.826Z,92.90
2023-02-01T23:43:52.485Z,91.40
2023-02-01T23:46:19.947Z,89.30
2023-02-01T23:48:48.524Z,90.40
2023-02-01T23:51:15.987Z,91.50
2023-02-01T23:53:44.675Z,93.30
2023-02-01T23:56:20.922Z,93.10
2023-02-01T23:58:48.252Z,82.10
